sensor_id;sensor_type;location;lat;lon;timestamp;P1;durP1;ratioP1;P2;durP2;ratioP2
76098;SDS011;64828;49.956;8.636;2023-04-03T00:00:08;4.25;;;2.28;;
76098;SDS011;64828;49.956;8.636;2023-04-03T00:00:25;4.40;;;2.45;;
76098;SDS011;64828;49.956;8.636;2023-04-03T00:00:41;4.38;;;2.63;;
76098;SDS011;64828;49.956;8.636;2023-04-03T00:00:57;4.50;;;2.60;;
76098;SDS011;64828;49.956;8.636;2023-04-03T00:01:13;4.22;;;2.53;;
76098;SDS011;64828;49.956;8.636;2023-04-03T00:01:29;4.45;;;2.38;;
76098;SDS011;64828;49.956;8.636;2023-04-03T00:01:45;4.13;;;2.20;;
76098;SDS011;64828;49.956;8.636;2023-04-03T00:02:01;3.55;;;2.45;;
76098;SDS011;64828;49.956;8.636;2023-04-03T00:02:17;3.30;;;2.60;;
76098;SDS011;64828;49.956;8.636;2023-04-03T00:02:32;4.03;;;2.70;;
76098;SDS011;64828;49.956;8.636;2023-04-03T00:02:48;4.60;;;2.58;;
76098;SDS011;64828;49.956;8.636;2023-04-03T00:03:04;3.90;;;2.23;;
76098;SDS011;64828;49.956;8.636;2023-04-03T00:03:19;4.30;;;2.47;;
76098;SDS011;64828;49.956;8.636;2023-04-03T00:03:35;4.20;;;2.70;;
76098;SDS011;64828;49.956;8.636;2023-04-03T00:03:52;3.92;;;2.60;;
76098;SDS011;64828;49.956;8.636;2023-04-03T00:04:07;3.95;;;2.40;;
76098;SDS011;64828;49.956;8.636;2023-04-03T00:04:23;3.70;;;2.40;;
76098;SDS011;64828;49.956;8.636;2023-04-03T00:04:39;4.15;;;2.50;;
76098;SDS011;64828;49.956;8.636;2023-04-03T00:04:55;4.78;;;2.40;;
76098;SDS011;64828;49.956;8.636;2023-04-03T00:05:11;4.45;;;2.55;;
76098;SDS011;64828;49.956;8.636;2023-04-03T00:05:27;4.93;;;2.60;;
76098;SDS011;64828;49.956;8.636;2023-04-03T00:05:42;5.78;;;2.70;;
76098;SDS011;64828;49.956;8.636;2023-04-03T00:05:58;3.97;;;2.55;;
76098;SDS011;64828;49.956;8.636;2023-04-03T00:06:14;3.20;;;2.25;;
76098;SDS011;64828;49.956;8.636;2023-04-03T00:06:30;4.23;;;2.40;;
76098;SDS011;64828;49.956;8.636;2023-04-03T00:06:45;4.57;;;2.30;;
76098;SDS011;64828;49.956;8.636;2023-04-03T00:07:01;3.70;;;2.38;;
76098;SDS011;64828;49.956;8.636;2023-04-03T00:07:17;3.40;;;2.60;;
76098;SDS011;64828;49.956;8.636;2023-04-03T00:07:32;3.00;;;2.40;;
76098;SDS011;64828;49.956;8.636;2023-04-03T00:07:48;2.88;;;2.25;;
76098;SDS011;64828;49.956;8.636;2023-04-03T00:08:04;4.57;;;2.30;;
76098;SDS011;64828;49.956;8.636;2023-04-03T00:08:22;4.82;;;2.30;;
76098;SDS011;64828;49.956;8.636;2023-04-03T00:08:38;3.97;;;2.40;;
76098;SDS011;64828;49.956;8.636;2023-04-03T00:08:55;4.25;;;2.40;;
76098;SDS011;64828;49.956;8.636;2023-04-03T00:09:10;3.73;;;2.33;;
76098;SDS011;64828;49.956;8.636;2023-04-03T00:09:26;3.30;;;2.45;;
76098;SDS011;64828;49.956;8.636;2023-04-03T00:09:42;5.03;;;2.53;;
76098;SDS011;64828;49.956;8.636;2023-04-03T00:09:57;5.32;;;2.42;;
76098;SDS011;64828;49.956;8.636;2023-04-03T00:10:13;4.10;;;2.30;;
76098;SDS011;64828;49.956;8.636;2023-04-03T00:10:30;3.33;;;2.22;;
76098;SDS011;64828;49.956;8.636;2023-04-03T00:10:45;3.50;;;2.40;;
76098;SDS011;64828;49.956;8.636;2023-04-03T00:11:02;3.63;;;2.47;;
76098;SDS011;64828;49.956;8.636;2023-04-03T00:11:19;4.15;;;2.40;;
76098;SDS011;64828;49.956;8.636;2023-04-03T00:11:35;4.78;;;2.40;;
76098;SDS011;64828;49.956;8.636;2023-04-03T00:11:51;4.85;;;2.40;;
76098;SDS011;64828;49.956;8.636;2023-04-03T00:12:06;4.17;;;2.40;;
76098;SDS011;64828;49.956;8.636;2023-04-03T00:12:22;3.85;;;2.47;;
76098;SDS011;64828;49.956;8.636;2023-04-03T00:12:38;3.23;;;2.27;;
76098;SDS011;64828;49.956;8.636;2023-04-03T00:12:54;3.15;;;2.20;;
76098;SDS011;64828;49.956;8.636;2023-04-03T00:13:10;3.40;;;2.20;;
76098;SDS011;64828;49.956;8.636;2023-04-03T00:13:25;3.75;;;2.40;;
76098;SDS011;64828;49.956;8.636;2023-04-03T00:13:41;3.63;;;2.35;;
76098;SDS011;64828;49.956;8.636;2023-04-03T00:13:58;3.42;;;2.50;;
76098;SDS011;64828;49.956;8.636;2023-04-03T00:14:13;3.27;;;2.27;;
76098;SDS011;64828;49.956;8.636;2023-04-03T00:14:29;2.72;;;2.00;;
76098;SDS011;64828;49.956;8.636;2023-04-03T00:14:45;2.83;;;2.20;;
76098;SDS011;64828;49.956;8.636;2023-04-03T00:15:00;4.07;;;2.40;;
76098;SDS011;64828;49.956;8.636;2023-04-03T00:15:16;4.57;;;2.40;;
76098;SDS011;64828;49.956;8.636;2023-04-03T00:15:32;4.50;;;2.38;;
76098;SDS011;64828;49.956;8.636;2023-04-03T00:15:49;4.82;;;2.30;;
76098;SDS011;64828;49.956;8.636;2023-04-03T00:16:06;5.55;;;2.30;;
76098;SDS011;64828;49.956;8.636;2023-04-03T00:16:26;4.78;;;2.50;;
76098;SDS011;64828;49.956;8.636;2023-04-03T00:16:41;4.07;;;2.40;;
76098;SDS011;64828;49.956;8.636;2023-04-03T00:16:57;4.60;;;2.50;;
76098;SDS011;64828;49.956;8.636;2023-04-03T00:17:13;4.07;;;2.57;;
76098;SDS011;64828;49.956;8.636;2023-04-03T00:17:28;3.50;;;2.22;;
76098;SDS011;64828;49.956;8.636;2023-04-03T00:17:44;4.47;;;2.42;;
76098;SDS011;64828;49.956;8.636;2023-04-03T00:18:00;4.70;;;2.70;;
76098;SDS011;64828;49.956;8.636;2023-04-03T00:18:17;3.92;;;2.35;;
76098;SDS011;64828;49.956;8.636;2023-04-03T00:18:33;4.93;;;2.30;;
76098;SDS011;64828;49.956;8.636;2023-04-03T00:18:49;4.80;;;2.50;;
76098;SDS011;64828;49.956;8.636;2023-04-03T00:19:04;4.18;;;2.47;;
76098;SDS011;64828;49.956;8.636;2023-04-03T00:19:20;4.22;;;2.33;;
76098;SDS011;64828;49.956;8.636;2023-04-03T00:19:36;3.90;;;2.20;;
76098;SDS011;64828;49.956;8.636;2023-04-03T00:19:51;3.97;;;2.30;;
76098;SDS011;64828;49.956;8.636;2023-04-03T00:20:07;3.85;;;2.17;;
76098;SDS011;64828;49.956;8.636;2023-04-03T00:20:24;4.20;;;2.15;;
76098;SDS011;64828;49.956;8.636;2023-04-03T00:20:39;5.10;;;2.40;;
76098;SDS011;64828;49.956;8.636;2023-04-03T00:20:55;5.15;;;2.50;;
76098;SDS011;64828;49.956;8.636;2023-04-03T00:21:12;3.83;;;2.45;;
76098;SDS011;64828;49.956;8.636;2023-04-03T00:21:28;3.92;;;2.30;;
76098;SDS011;64828;49.956;8.636;2023-04-03T00:21:44;4.20;;;2.42;;
76098;SDS011;64828;49.956;8.636;2023-04-03T00:22:00;3.83;;;2.50;;
76098;SDS011;64828;49.956;8.636;2023-04-03T00:22:16;3.38;;;2.20;;
76098;SDS011;64828;49.956;8.636;2023-04-03T00:22:32;3.05;;;2.05;;
76098;SDS011;64828;49.956;8.636;2023-04-03T00:22:47;4.17;;;2.23;;
76098;SDS011;64828;49.956;8.636;2023-04-03T00:23:03;4.88;;;2.42;;
76098;SDS011;64828;49.956;8.636;2023-04-03T00:23:19;4.45;;;2.50;;
76098;SDS011;64828;49.956;8.636;2023-04-03T00:23:34;3.83;;;2.43;;
76098;SDS011;64828;49.956;8.636;2023-04-03T00:23:50;3.00;;;2.13;;
76098;SDS011;64828;49.956;8.636;2023-04-03T00:24:06;3.58;;;2.40;;
76098;SDS011;64828;49.956;8.636;2023-04-03T00:24:22;4.93;;;2.45;;
76098;SDS011;64828;49.956;8.636;2023-04-03T00:24:37;4.77;;;2.40;;
76098;SDS011;64828;49.956;8.636;2023-04-03T00:24:53;3.25;;;2.20;;
76098;SDS011;64828;49.956;8.636;2023-04-03T00:25:09;3.88;;;2.13;;
76098;SDS011;64828;49.956;8.636;2023-04-03T00:25:24;3.87;;;2.20;;
76098;SDS011;64828;49.956;8.636;2023-04-03T00:25:40;3.10;;;2.10;;
76098;SDS011;64828;49.956;8.636;2023-04-03T00:25:56;3.20;;;2.10;;
76098;SDS011;64828;49.956;8.636;2023-04-03T00:26:11;3.30;;;2.10;;
76098;SDS011;64828;49.956;8.636;2023-04-03T00:26:27;2.97;;;2.08;;
76098;SDS011;64828;49.956;8.636;2023-04-03T00:26:43;3.88;;;2.00;;
76098;SDS011;64828;49.956;8.636;2023-04-03T00:26:58;5.53;;;2.27;;
76098;SDS011;64828;49.956;8.636;2023-04-03T00:27:14;4.72;;;2.50;;
76098;SDS011;64828;49.956;8.636;2023-04-03T00:27:31;3.47;;;2.30;;
76098;SDS011;64828;49.956;8.636;2023-04-03T00:27:47;3.67;;;2.30;;
76098;SDS011;64828;49.956;8.636;2023-04-03T00:28:03;3.60;;;2.38;;
76098;SDS011;64828;49.956;8.636;2023-04-03T00:28:20;4.05;;;2.35;;
76098;SDS011;64828;49.956;8.636;2023-04-03T00:28:36;4.68;;;2.28;;
76098;SDS011;64828;49.956;8.636;2023-04-03T00:28:51;4.20;;;2.20;;
76098;SDS011;64828;49.956;8.636;2023-04-03T00:29:07;3.75;;;2.20;;
76098;SDS011;64828;49.956;8.636;2023-04-03T00:29:22;3.30;;;2.13;;
76098;SDS011;64828;49.956;8.636;2023-04-03T00:29:38;2.90;;;2.13;;
76098;SDS011;64828;49.956;8.636;2023-04-03T00:29:54;3.33;;;2.28;;
76098;SDS011;64828;49.956;8.636;2023-04-03T00:30:10;3.37;;;2.30;;
76098;SDS011;64828;49.956;8.636;2023-04-03T00:30:31;3.92;;;2.30;;
76098;SDS011;64828;49.956;8.636;2023-04-03T00:30:48;4.55;;;2.30;;
76098;SDS011;64828;49.956;8.636;2023-04-03T00:31:05;5.00;;;2.30;;
76098;SDS011;64828;49.956;8.636;2023-04-03T00:31:20;4.25;;;2.33;;
76098;SDS011;64828;49.956;8.636;2023-04-03T00:31:36;3.43;;;2.17;;
76098;SDS011;64828;49.956;8.636;2023-04-03T00:31:52;3.50;;;2.20;;
76098;SDS011;64828;49.956;8.636;2023-04-03T00:32:08;3.70;;;2.20;;
76098;SDS011;64828;49.956;8.636;2023-04-03T00:32:23;3.57;;;2.10;;
76098;SDS011;64828;49.956;8.636;2023-04-03T00:32:39;3.78;;;2.15;;
76098;SDS011;64828;49.956;8.636;2023-04-03T00:32:55;4.22;;;2.33;;
76098;SDS011;64828;49.956;8.636;2023-04-03T00:33:11;4.38;;;2.35;;
76098;SDS011;64828;49.956;8.636;2023-04-03T00:33:28;3.63;;;2.22;;
76098;SDS011;64828;49.956;8.636;2023-04-03T00:33:44;3.92;;;2.10;;
76098;SDS011;64828;49.956;8.636;2023-04-03T00:33:59;3.90;;;2.30;;
76098;SDS011;64828;49.956;8.636;2023-04-03T00:34:15;3.03;;;2.13;;
76098;SDS011;64828;49.956;8.636;2023-04-03T00:34:31;3.55;;;2.25;;
76098;SDS011;64828;49.956;8.636;2023-04-03T00:34:46;4.10;;;2.30;;
76098;SDS011;64828;49.956;8.636;2023-04-03T00:35:02;4.33;;;2.30;;
76098;SDS011;64828;49.956;8.636;2023-04-03T00:35:19;4.25;;;2.38;;
76098;SDS011;64828;49.956;8.636;2023-04-03T00:35:36;4.63;;;2.15;;
76098;SDS011;64828;49.956;8.636;2023-04-03T00:35:52;5.93;;;2.10;;
76098;SDS011;64828;49.956;8.636;2023-04-03T00:36:09;5.10;;;2.10;;
76098;SDS011;64828;49.956;8.636;2023-04-03T00:36:25;3.13;;;2.03;;
76098;SDS011;64828;49.956;8.636;2023-04-03T00:36:41;3.30;;;2.10;;
76098;SDS011;64828;49.956;8.636;2023-04-03T00:36:57;3.10;;;2.08;;
76098;SDS011;64828;49.956;8.636;2023-04-03T00:37:12;3.30;;;2.20;;
76098;SDS011;64828;49.956;8.636;2023-04-03T00:37:28;3.63;;;2.22;;
76098;SDS011;64828;49.956;8.636;2023-04-03T00:37:44;3.85;;;2.20;;
76098;SDS011;64828;49.956;8.636;2023-04-03T00:38:01;4.65;;;2.25;;
76098;SDS011;64828;49.956;8.636;2023-04-03T00:38:17;5.22;;;2.30;;
76098;SDS011;64828;49.956;8.636;2023-04-03T00:38:33;4.70;;;2.10;;
76098;SDS011;64828;49.956;8.636;2023-04-03T00:38:48;3.70;;;2.00;;
76098;SDS011;64828;49.956;8.636;2023-04-03T00:39:04;3.37;;;2.50;;
76098;SDS011;64828;49.956;8.636;2023-04-03T00:39:20;3.42;;;2.67;;
76098;SDS011;64828;49.956;8.636;2023-04-03T00:39:36;3.10;;;2.27;;
76098;SDS011;64828;49.956;8.636;2023-04-03T00:39:51;2.85;;;2.22;;
76098;SDS011;64828;49.956;8.636;2023-04-03T00:40:07;3.70;;;2.20;;
76098;SDS011;64828;49.956;8.636;2023-04-03T00:40:24;4.32;;;2.45;;
76098;SDS011;64828;49.956;8.636;2023-04-03T00:40:42;3.97;;;2.50;;
76098;SDS011;64828;49.956;8.636;2023-04-03T00:41:02;4.03;;;2.10;;
76098;SDS011;64828;49.956;8.636;2023-04-03T00:41:18;3.72;;;2.30;;
76098;SDS011;64828;49.956;8.636;2023-04-03T00:41:33;4.07;;;2.60;;
76098;SDS011;64828;49.956;8.636;2023-04-03T00:41:50;4.25;;;2.45;;
76098;SDS011;64828;49.956;8.636;2023-04-03T00:42:05;5.13;;;2.40;;
76098;SDS011;64828;49.956;8.636;2023-04-03T00:42:21;5.82;;;2.53;;
76098;SDS011;64828;49.956;8.636;2023-04-03T00:42:37;5.13;;;2.40;;
76098;SDS011;64828;49.956;8.636;2023-04-03T00:43:00;4.05;;;2.33;;
76098;SDS011;64828;49.956;8.636;2023-04-03T00:43:31;4.07;;;2.20;;
76098;SDS011;64828;49.956;8.636;2023-04-03T00:43:47;3.22;;;2.20;;
76098;SDS011;64828;49.956;8.636;2023-04-03T00:44:23;3.33;;;2.30;;
76098;SDS011;64828;49.956;8.636;2023-04-03T00:45:56;4.05;;;2.22;;
76098;SDS011;64828;49.956;8.636;2023-04-03T00:46:13;3.17;;;2.20;;
76098;SDS011;64828;49.956;8.636;2023-04-03T00:46:29;3.50;;;2.30;;
76098;SDS011;64828;49.956;8.636;2023-04-03T00:46:44;3.83;;;2.20;;
76098;SDS011;64828;49.956;8.636;2023-04-03T00:47:00;3.33;;;2.00;;
76098;SDS011;64828;49.956;8.636;2023-04-03T00:47:20;3.42;;;2.30;;
76098;SDS011;64828;49.956;8.636;2023-04-03T00:47:36;3.27;;;2.20;;
76098;SDS011;64828;49.956;8.636;2023-04-03T00:47:55;3.50;;;2.33;;
76098;SDS011;64828;49.956;8.636;2023-04-03T00:48:22;4.15;;;2.28;;
76098;SDS011;64828;49.956;8.636;2023-04-03T00:48:52;4.38;;;2.15;;
76098;SDS011;64828;49.956;8.636;2023-04-03T00:49:08;3.95;;;2.30;;
76098;SDS011;64828;49.956;8.636;2023-04-03T00:49:23;3.77;;;2.30;;
76098;SDS011;64828;49.956;8.636;2023-04-03T00:49:39;3.67;;;2.20;;
76098;SDS011;64828;49.956;8.636;2023-04-03T00:49:55;4.20;;;2.30;;
76098;SDS011;64828;49.956;8.636;2023-04-03T00:50:13;4.55;;;2.40;;
76098;SDS011;64828;49.956;8.636;2023-04-03T00:50:29;3.80;;;2.30;;
76098;SDS011;64828;49.956;8.636;2023-04-03T00:50:45;3.50;;;2.20;;
76098;SDS011;64828;49.956;8.636;2023-04-03T00:51:03;4.40;;;2.22;;
76098;SDS011;64828;49.956;8.636;2023-04-03T00:51:24;3.22;;;2.28;;
76098;SDS011;64828;49.956;8.636;2023-04-03T00:51:41;3.53;;;2.22;;
76098;SDS011;64828;49.956;8.636;2023-04-03T00:51:58;4.25;;;2.33;;
76098;SDS011;64828;49.956;8.636;2023-04-03T00:52:16;3.80;;;2.30;;
76098;SDS011;64828;49.956;8.636;2023-04-03T00:52:38;3.50;;;2.40;;
76098;SDS011;64828;49.956;8.636;2023-04-03T00:52:54;3.58;;;2.10;;
76098;SDS011;64828;49.956;8.636;2023-04-03T00:53:14;4.03;;;2.22;;
76098;SDS011;64828;49.956;8.636;2023-04-03T00:53:43;4.05;;;2.10;;
76098;SDS011;64828;49.956;8.636;2023-04-03T00:54:22;3.55;;;2.10;;
76098;SDS011;64828;49.956;8.636;2023-04-03T00:54:38;3.75;;;2.30;;
76098;SDS011;64828;49.956;8.636;2023-04-03T00:54:58;3.75;;;2.15;;
76098;SDS011;64828;49.956;8.636;2023-04-03T00:55:18;5.30;;;2.30;;
76098;SDS011;64828;49.956;8.636;2023-04-03T00:55:35;4.43;;;2.20;;
76098;SDS011;64828;49.956;8.636;2023-04-03T00:55:53;2.80;;;2.00;;
76098;SDS011;64828;49.956;8.636;2023-04-03T00:56:12;3.83;;;2.30;;
76098;SDS011;64828;49.956;8.636;2023-04-03T00:56:32;4.70;;;2.35;;
76098;SDS011;64828;49.956;8.636;2023-04-03T00:56:51;4.60;;;2.35;;
76098;SDS011;64828;49.956;8.636;2023-04-03T00:57:10;3.75;;;2.15;;
76098;SDS011;64828;49.956;8.636;2023-04-03T00:57:27;3.50;;;2.10;;
76098;SDS011;64828;49.956;8.636;2023-04-03T00:57:46;3.25;;;2.20;;
76098;SDS011;64828;49.956;8.636;2023-04-03T00:58:02;3.95;;;2.22;;
76098;SDS011;64828;49.956;8.636;2023-04-03T00:58:22;3.08;;;2.08;;
76098;SDS011;64828;49.956;8.636;2023-04-03T00:59:08;2.88;;;2.00;;
76098;SDS011;64828;49.956;8.636;2023-04-03T00:59:31;4.95;;;2.10;;
76098;SDS011;64828;49.956;8.636;2023-04-03T00:59:57;4.80;;;2.28;;
76098;SDS011;64828;49.956;8.636;2023-04-03T01:00:20;4.10;;;2.20;;
76098;SDS011;64828;49.956;8.636;2023-04-03T01:00:38;3.30;;;2.28;;
76098;SDS011;64828;49.956;8.636;2023-04-03T01:01:03;3.85;;;2.20;;
76098;SDS011;64828;49.956;8.636;2023-04-03T01:01:24;4.10;;;2.10;;
76098;SDS011;64828;49.956;8.636;2023-04-03T01:01:42;3.58;;;2.20;;
76098;SDS011;64828;49.956;8.636;2023-04-03T01:01:58;3.22;;;2.00;;
76098;SDS011;64828;49.956;8.636;2023-04-03T01:02:15;3.03;;;2.20;;
76098;SDS011;64828;49.956;8.636;2023-04-03T01:02:33;3.75;;;2.13;;
76098;SDS011;64828;49.956;8.636;2023-04-03T01:02:49;4.70;;;2.20;;
76098;SDS011;64828;49.956;8.636;2023-04-03T01:03:06;4.50;;;2.25;;
76098;SDS011;64828;49.956;8.636;2023-04-03T01:03:22;3.67;;;2.23;;
76098;SDS011;64828;49.956;8.636;2023-04-03T01:03:39;3.03;;;2.20;;
76098;SDS011;64828;49.956;8.636;2023-04-03T01:03:54;2.78;;;2.08;;
76098;SDS011;64828;49.956;8.636;2023-04-03T01:04:51;3.13;;;2.20;;
76098;SDS011;64828;49.956;8.636;2023-04-03T01:05:07;3.45;;;2.17;;
76098;SDS011;64828;49.956;8.636;2023-04-03T01:05:24;3.45;;;2.20;;
76098;SDS011;64828;49.956;8.636;2023-04-03T01:05:40;3.00;;;2.20;;
76098;SDS011;64828;49.956;8.636;2023-04-03T01:05:56;3.38;;;2.05;;
76098;SDS011;64828;49.956;8.636;2023-04-03T01:06:12;3.90;;;2.20;;
76098;SDS011;64828;49.956;8.636;2023-04-03T01:06:33;3.72;;;2.10;;
76098;SDS011;64828;49.956;8.636;2023-04-03T01:06:52;3.35;;;2.15;;
76098;SDS011;64828;49.956;8.636;2023-04-03T01:07:12;3.15;;;2.08;;
76098;SDS011;64828;49.956;8.636;2023-04-03T01:07:37;4.15;;;2.20;;
76098;SDS011;64828;49.956;8.636;2023-04-03T01:07:54;4.20;;;2.30;;
76098;SDS011;64828;49.956;8.636;2023-04-03T01:08:11;3.38;;;2.00;;
76098;SDS011;64828;49.956;8.636;2023-04-03T01:08:27;3.80;;;2.07;;
76098;SDS011;64828;49.956;8.636;2023-04-03T01:08:43;4.57;;;2.40;;
76098;SDS011;64828;49.956;8.636;2023-04-03T01:09:02;4.00;;;2.22;;
76098;SDS011;64828;49.956;8.636;2023-04-03T01:09:19;3.78;;;2.30;;
76098;SDS011;64828;49.956;8.636;2023-04-03T01:09:35;4.18;;;2.38;;
76098;SDS011;64828;49.956;8.636;2023-04-03T01:09:53;3.25;;;2.08;;
76098;SDS011;64828;49.956;8.636;2023-04-03T01:10:15;3.60;;;2.00;;
76098;SDS011;64828;49.956;8.636;2023-04-03T01:10:34;2.90;;;2.10;;
76098;SDS011;64828;49.956;8.636;2023-04-03T01:10:50;3.57;;;2.20;;
76098;SDS011;64828;49.956;8.636;2023-04-03T01:11:05;4.00;;;1.90;;
76098;SDS011;64828;49.956;8.636;2023-04-03T01:11:21;3.78;;;2.10;;
76098;SDS011;64828;49.956;8.636;2023-04-03T01:11:37;3.70;;;2.30;;
76098;SDS011;64828;49.956;8.636;2023-04-03T01:11:52;4.13;;;2.28;;
76098;SDS011;64828;49.956;8.636;2023-04-03T01:12:14;4.93;;;2.23;;
76098;SDS011;64828;49.956;8.636;2023-04-03T01:12:33;4.13;;;2.30;;
76098;SDS011;64828;49.956;8.636;2023-04-03T01:12:52;3.47;;;2.10;;
76098;SDS011;64828;49.956;8.636;2023-04-03T01:13:19;4.07;;;2.40;;
76098;SDS011;64828;49.956;8.636;2023-04-03T01:13:44;4.50;;;2.10;;
76098;SDS011;64828;49.956;8.636;2023-04-03T01:14:00;4.30;;;2.20;;
76098;SDS011;64828;49.956;8.636;2023-04-03T01:14:16;3.80;;;2.30;;
76098;SDS011;64828;49.956;8.636;2023-04-03T01:14:32;3.78;;;2.05;;
76098;SDS011;64828;49.956;8.636;2023-04-03T01:14:49;4.30;;;2.10;;
76098;SDS011;64828;49.956;8.636;2023-04-03T01:15:37;3.38;;;1.92;;
76098;SDS011;64828;49.956;8.636;2023-04-03T01:15:53;3.35;;;1.95;;
76098;SDS011;64828;49.956;8.636;2023-04-03T01:16:10;3.22;;;2.10;;
76098;SDS011;64828;49.956;8.636;2023-04-03T01:16:25;3.60;;;2.20;;
76098;SDS011;64828;49.956;8.636;2023-04-03T01:16:42;3.88;;;2.25;;
76098;SDS011;64828;49.956;8.636;2023-04-03T01:17:23;3.80;;;2.20;;
76098;SDS011;64828;49.956;8.636;2023-04-03T01:17:58;2.67;;;1.90;;
76098;SDS011;64828;49.956;8.636;2023-04-03T01:18:15;3.85;;;2.15;;
76098;SDS011;64828;49.956;8.636;2023-04-03T01:18:31;4.88;;;2.40;;
76098;SDS011;64828;49.956;8.636;2023-04-03T01:18:50;3.92;;;2.10;;
76098;SDS011;64828;49.956;8.636;2023-04-03T01:19:11;3.92;;;2.00;;
76098;SDS011;64828;49.956;8.636;2023-04-03T01:19:32;3.60;;;1.95;;
76098;SDS011;64828;49.956;8.636;2023-04-03T01:19:57;4.45;;;2.17;;
76098;SDS011;64828;49.956;8.636;2023-04-03T01:21:56;2.90;;;2.08;;
76098;SDS011;64828;49.956;8.636;2023-04-03T01:22:53;4.35;;;2.10;;
76098;SDS011;64828;49.956;8.636;2023-04-03T01:23:23;3.13;;;1.90;;
76098;SDS011;64828;49.956;8.636;2023-04-03T01:24:33;4.57;;;2.13;;
76098;SDS011;64828;49.956;8.636;2023-04-03T01:24:53;3.90;;;2.10;;
76098;SDS011;64828;49.956;8.636;2023-04-03T01:25:09;3.40;;;1.98;;
76098;SDS011;64828;49.956;8.636;2023-04-03T01:25:24;2.90;;;1.80;;
76098;SDS011;64828;49.956;8.636;2023-04-03T01:25:48;3.22;;;1.83;;
76098;SDS011;64828;49.956;8.636;2023-04-03T01:26:07;3.83;;;2.10;;
76098;SDS011;64828;49.956;8.636;2023-04-03T01:26:25;4.63;;;2.20;;
76098;SDS011;64828;49.956;8.636;2023-04-03T01:26:40;4.13;;;2.20;;
76098;SDS011;64828;49.956;8.636;2023-04-03T01:26:56;3.63;;;2.10;;
76098;SDS011;64828;49.956;8.636;2023-04-03T01:27:13;3.05;;;1.92;;
76098;SDS011;64828;49.956;8.636;2023-04-03T01:27:28;2.80;;;1.90;;
76098;SDS011;64828;49.956;8.636;2023-04-03T01:27:44;3.38;;;1.92;;
76098;SDS011;64828;49.956;8.636;2023-04-03T01:28:00;3.25;;;1.90;;
76098;SDS011;64828;49.956;8.636;2023-04-03T01:28:25;2.83;;;1.93;;
76098;SDS011;64828;49.956;8.636;2023-04-03T01:28:46;3.65;;;2.20;;
76098;SDS011;64828;49.956;8.636;2023-04-03T01:29:02;3.50;;;2.10;;
76098;SDS011;64828;49.956;8.636;2023-04-03T01:29:18;3.33;;;2.10;;
76098;SDS011;64828;49.956;8.636;2023-04-03T01:29:34;3.97;;;2.08;;
76098;SDS011;64828;49.956;8.636;2023-04-03T01:29:50;4.03;;;2.08;;
76098;SDS011;64828;49.956;8.636;2023-04-03T01:30:06;3.50;;;2.08;;
76098;SDS011;64828;49.956;8.636;2023-04-03T01:30:24;3.28;;;1.90;;
76098;SDS011;64828;49.956;8.636;2023-04-03T01:30:48;4.32;;;2.25;;
76098;SDS011;64828;49.956;8.636;2023-04-03T01:31:41;3.58;;;2.20;;
76098;SDS011;64828;49.956;8.636;2023-04-03T01:32:27;3.78;;;2.20;;
76098;SDS011;64828;49.956;8.636;2023-04-03T01:32:43;4.28;;;2.30;;
76098;SDS011;64828;49.956;8.636;2023-04-03T01:32:58;5.68;;;2.40;;
76098;SDS011;64828;49.956;8.636;2023-04-03T01:33:14;8.53;;;2.47;;
76098;SDS011;64828;49.956;8.636;2023-04-03T01:33:30;6.10;;;2.17;;
76098;SDS011;64828;49.956;8.636;2023-04-03T01:33:46;4.55;;;2.00;;
76098;SDS011;64828;49.956;8.636;2023-04-03T01:34:02;4.07;;;2.03;;
76098;SDS011;64828;49.956;8.636;2023-04-03T01:34:18;3.97;;;2.10;;
76098;SDS011;64828;49.956;8.636;2023-04-03T01:34:35;3.90;;;1.95;;
76098;SDS011;64828;49.956;8.636;2023-04-03T01:34:50;3.67;;;1.90;;
76098;SDS011;64828;49.956;8.636;2023-04-03T01:35:07;5.07;;;2.13;;
76098;SDS011;64828;49.956;8.636;2023-04-03T01:35:24;5.35;;;2.30;;
76098;SDS011;64828;49.956;8.636;2023-04-03T01:35:40;4.43;;;2.25;;
76098;SDS011;64828;49.956;8.636;2023-04-03T01:35:56;4.57;;;2.22;;
76098;SDS011;64828;49.956;8.636;2023-04-03T01:36:16;5.00;;;2.17;;
76098;SDS011;64828;49.956;8.636;2023-04-03T01:36:39;3.25;;;1.88;;
76098;SDS011;64828;49.956;8.636;2023-04-03T01:36:55;4.35;;;1.92;;
76098;SDS011;64828;49.956;8.636;2023-04-03T01:37:12;4.05;;;2.00;;
76098;SDS011;64828;49.956;8.636;2023-04-03T01:37:27;2.90;;;2.10;;
76098;SDS011;64828;49.956;8.636;2023-04-03T01:37:43;3.20;;;2.05;;
76098;SDS011;64828;49.956;8.636;2023-04-03T01:37:58;2.85;;;1.92;;
76098;SDS011;64828;49.956;8.636;2023-04-03T01:38:14;2.83;;;1.90;;
76098;SDS011;64828;49.956;8.636;2023-04-03T01:38:31;3.90;;;2.17;;
76098;SDS011;64828;49.956;8.636;2023-04-03T01:38:47;3.80;;;2.28;;
76098;SDS011;64828;49.956;8.636;2023-04-03T01:39:03;3.38;;;2.00;;
76098;SDS011;64828;49.956;8.636;2023-04-03T01:39:19;3.47;;;1.92;;
76098;SDS011;64828;49.956;8.636;2023-04-03T01:39:35;4.30;;;2.10;;
76098;SDS011;64828;49.956;8.636;2023-04-03T01:39:51;4.50;;;2.10;;
76098;SDS011;64828;49.956;8.636;2023-04-03T01:40:07;4.18;;;2.00;;
76098;SDS011;64828;49.956;8.636;2023-04-03T01:40:23;3.53;;;1.98;;
76098;SDS011;64828;49.956;8.636;2023-04-03T01:40:40;2.72;;;1.90;;
76098;SDS011;64828;49.956;8.636;2023-04-03T01:40:55;3.78;;;2.00;;
76098;SDS011;64828;49.956;8.636;2023-04-03T01:41:11;4.47;;;2.10;;
76098;SDS011;64828;49.956;8.636;2023-04-03T01:41:27;4.30;;;2.30;;
76098;SDS011;64828;49.956;8.636;2023-04-03T01:41:44;3.90;;;2.30;;
76098;SDS011;64828;49.956;8.636;2023-04-03T01:41:59;3.88;;;2.25;;
76098;SDS011;64828;49.956;8.636;2023-04-03T01:42:15;3.93;;;2.17;;
76098;SDS011;64828;49.956;8.636;2023-04-03T01:42:31;4.60;;;2.15;;
76098;SDS011;64828;49.956;8.636;2023-04-03T01:42:46;4.63;;;2.25;;
76098;SDS011;64828;49.956;8.636;2023-04-03T01:43:02;3.67;;;2.03;;
76098;SDS011;64828;49.956;8.636;2023-04-03T01:43:18;3.75;;;1.80;;
76098;SDS011;64828;49.956;8.636;2023-04-03T01:43:33;4.50;;;1.90;;
76098;SDS011;64828;49.956;8.636;2023-04-03T01:43:49;3.87;;;1.90;;
76098;SDS011;64828;49.956;8.636;2023-04-03T01:44:05;3.70;;;1.90;;
76098;SDS011;64828;49.956;8.636;2023-04-03T01:44:21;3.90;;;1.83;;
76098;SDS011;64828;49.956;8.636;2023-04-03T01:44:36;3.28;;;1.92;;
76098;SDS011;64828;49.956;8.636;2023-04-03T01:44:52;3.20;;;2.07;;
76098;SDS011;64828;49.956;8.636;2023-04-03T01:45:08;3.58;;;2.00;;
76098;SDS011;64828;49.956;8.636;2023-04-03T01:45:24;4.10;;;2.00;;
76098;SDS011;64828;49.956;8.636;2023-04-03T01:45:40;3.90;;;2.10;;
76098;SDS011;64828;49.956;8.636;2023-04-03T01:45:55;3.58;;;2.13;;
76098;SDS011;64828;49.956;8.636;2023-04-03T01:46:11;2.97;;;2.10;;
76098;SDS011;64828;49.956;8.636;2023-04-03T01:46:26;3.20;;;1.92;;
76098;SDS011;64828;49.956;8.636;2023-04-03T01:46:42;3.47;;;1.90;;
76098;SDS011;64828;49.956;8.636;2023-04-03T01:46:58;2.90;;;1.90;;
76098;SDS011;64828;49.956;8.636;2023-04-03T01:47:13;4.25;;;2.00;;
76098;SDS011;64828;49.956;8.636;2023-04-03T01:47:29;4.40;;;1.93;;
76098;SDS011;64828;49.956;8.636;2023-04-03T01:47:47;3.10;;;1.95;;
76098;SDS011;64828;49.956;8.636;2023-04-03T01:48:02;3.67;;;2.03;;
76098;SDS011;64828;49.956;8.636;2023-04-03T01:48:19;4.05;;;1.80;;
76098;SDS011;64828;49.956;8.636;2023-04-03T01:48:36;4.60;;;2.05;;
76098;SDS011;64828;49.956;8.636;2023-04-03T01:48:51;5.47;;;2.25;;
76098;SDS011;64828;49.956;8.636;2023-04-03T01:49:07;4.47;;;2.17;;
76098;SDS011;64828;49.956;8.636;2023-04-03T01:49:23;4.17;;;2.13;;
76098;SDS011;64828;49.956;8.636;2023-04-03T01:49:39;4.57;;;2.10;;
76098;SDS011;64828;49.956;8.636;2023-04-03T01:49:54;3.85;;;2.05;;
76098;SDS011;64828;49.956;8.636;2023-04-03T01:50:10;3.47;;;2.20;;
76098;SDS011;64828;49.956;8.636;2023-04-03T01:50:25;3.13;;;2.20;;
76098;SDS011;64828;49.956;8.636;2023-04-03T01:50:41;2.70;;;1.90;;